sensor_id;sensor_type;location;lat;lon;timestamp;P1;durP1;ratioP1;P2;durP2;ratioP2
64875;SDS011;51369;49.862;9.908;2022-09-21T00:01:25;3.78;;;2.00;;
64875;SDS011;51369;49.862;9.908;2022-09-21T00:03:57;4.20;;;2.00;;
64875;SDS011;51369;49.862;9.908;2022-09-21T00:06:25;5.60;;;1.73;;
64875;SDS011;51369;49.862;9.908;2022-09-21T00:08:53;4.22;;;1.70;;
64875;SDS011;51369;49.862;9.908;2022-09-21T00:11:21;5.85;;;1.70;;
64875;SDS011;51369;49.862;9.908;2022-09-21T00:13:52;4.03;;;1.90;;
64875;SDS011;51369;49.862;9.908;2022-09-21T00:16:19;2.67;;;1.60;;
64875;SDS011;51369;49.862;9.908;2022-09-21T00:18:45;4.65;;;2.00;;
64875;SDS011;51369;49.862;9.908;2022-09-21T00:21:12;2.25;;;1.60;;
64875;SDS011;51369;49.862;9.908;2022-09-21T00:23:39;7.25;;;1.70;;
64875;SDS011;51369;49.862;9.908;2022-09-21T00:26:06;3.15;;;1.90;;
64875;SDS011;51369;49.862;9.908;2022-09-21T00:28:33;4.68;;;1.55;;
64875;SDS011;51369;49.862;9.908;2022-09-21T00:31:05;3.70;;;1.60;;
64875;SDS011;51369;49.862;9.908;2022-09-21T00:33:32;5.68;;;1.77;;
64875;SDS011;51369;49.862;9.908;2022-09-21T00:36:03;2.42;;;1.50;;
64875;SDS011;51369;49.862;9.908;2022-09-21T00:38:33;8.40;;;1.73;;
64875;SDS011;51369;49.862;9.908;2022-09-21T00:40:59;6.00;;;1.60;;
64875;SDS011;51369;49.862;9.908;2022-09-21T00:43:25;2.28;;;1.65;;
64875;SDS011;51369;49.862;9.908;2022-09-21T00:45:53;3.22;;;1.63;;
64875;SDS011;51369;49.862;9.908;2022-09-21T00:48:26;2.25;;;1.23;;
64875;SDS011;51369;49.862;9.908;2022-09-21T00:50:57;3.72;;;1.17;;
64875;SDS011;51369;49.862;9.908;2022-09-21T00:53:27;2.67;;;1.50;;
64875;SDS011;51369;49.862;9.908;2022-09-21T00:55:53;2.90;;;1.20;;
64875;SDS011;51369;49.862;9.908;2022-09-21T00:58:22;2.67;;;1.60;;
64875;SDS011;51369;49.862;9.908;2022-09-21T01:00:54;11.18;;;1.50;;
64875;SDS011;51369;49.862;9.908;2022-09-21T01:03:20;1.98;;;1.13;;
64875;SDS011;51369;49.862;9.908;2022-09-21T01:05:46;2.50;;;1.25;;
64875;SDS011;51369;49.862;9.908;2022-09-21T01:08:11;3.63;;;1.08;;
64875;SDS011;51369;49.862;9.908;2022-09-21T01:10:49;2.67;;;1.38;;
64875;SDS011;51369;49.862;9.908;2022-09-21T01:18:56;12.27;;;1.30;;
64875;SDS011;51369;49.862;9.908;2022-09-21T01:21:33;2.92;;;1.30;;
64875;SDS011;51369;49.862;9.908;2022-09-21T01:24:21;4.78;;;1.27;;
64875;SDS011;51369;49.862;9.908;2022-09-21T01:30:11;4.03;;;1.30;;
64875;SDS011;51369;49.862;9.908;2022-09-21T01:32:41;4.82;;;1.20;;
64875;SDS011;51369;49.862;9.908;2022-09-21T01:35:46;4.47;;;1.40;;
64875;SDS011;51369;49.862;9.908;2022-09-21T01:38:11;5.75;;;1.27;;
64875;SDS011;51369;49.862;9.908;2022-09-21T01:40:42;4.50;;;1.08;;
64875;SDS011;51369;49.862;9.908;2022-09-21T01:43:14;1.52;;;1.27;;
64875;SDS011;51369;49.862;9.908;2022-09-21T01:45:46;6.40;;;1.40;;
64875;SDS011;51369;49.862;9.908;2022-09-21T01:48:16;2.35;;;1.20;;
64875;SDS011;51369;49.862;9.908;2022-09-21T01:50:46;1.80;;;1.08;;
64875;SDS011;51369;49.862;9.908;2022-09-21T01:55:57;1.35;;;1.05;;
64875;SDS011;51369;49.862;9.908;2022-09-21T01:58:29;2.90;;;1.40;;
64875;SDS011;51369;49.862;9.908;2022-09-21T02:00:59;2.75;;;1.15;;
64875;SDS011;51369;49.862;9.908;2022-09-21T02:06:08;2.22;;;1.20;;
64875;SDS011;51369;49.862;9.908;2022-09-21T02:08:35;2.75;;;1.33;;
64875;SDS011;51369;49.862;9.908;2022-09-21T02:11:03;4.57;;;1.10;;
64875;SDS011;51369;49.862;9.908;2022-09-21T02:13:33;3.63;;;1.20;;
64875;SDS011;51369;49.862;9.908;2022-09-21T02:21:27;5.03;;;1.40;;
64875;SDS011;51369;49.862;9.908;2022-09-21T02:24:01;1.20;;;0.98;;
64875;SDS011;51369;49.862;9.908;2022-09-21T02:26:39;2.00;;;1.48;;
64875;SDS011;51369;49.862;9.908;2022-09-21T02:29:13;4.10;;;1.25;;
64875;SDS011;51369;49.862;9.908;2022-09-21T02:31:54;4.25;;;1.25;;
64875;SDS011;51369;49.862;9.908;2022-09-21T02:38:02;5.13;;;1.65;;
64875;SDS011;51369;49.862;9.908;2022-09-21T02:42:48;2.88;;;2.03;;
64875;SDS011;51369;49.862;9.908;2022-09-21T02:45:21;4.63;;;1.83;;
64875;SDS011;51369;49.862;9.908;2022-09-21T02:50:27;2.63;;;1.85;;
64875;SDS011;51369;49.862;9.908;2022-09-21T02:52:59;2.58;;;1.10;;
64875;SDS011;51369;49.862;9.908;2022-09-21T02:55:28;2.38;;;1.30;;
64875;SDS011;51369;49.862;9.908;2022-09-21T02:57:55;7.07;;;1.30;;
64875;SDS011;51369;49.862;9.908;2022-09-21T03:00:21;4.72;;;1.38;;
64875;SDS011;51369;49.862;9.908;2022-09-21T03:02:47;1.85;;;1.50;;
64875;SDS011;51369;49.862;9.908;2022-09-21T03:05:12;5.00;;;1.55;;
64875;SDS011;51369;49.862;9.908;2022-09-21T03:07:39;2.47;;;1.30;;
64875;SDS011;51369;49.862;9.908;2022-09-21T03:10:05;3.10;;;1.13;;
64875;SDS011;51369;49.862;9.908;2022-09-21T03:12:32;2.97;;;1.30;;
64875;SDS011;51369;49.862;9.908;2022-09-21T03:14:58;2.88;;;1.20;;
64875;SDS011;51369;49.862;9.908;2022-09-21T03:17:24;3.80;;;1.42;;
64875;SDS011;51369;49.862;9.908;2022-09-21T03:19:50;1.77;;;1.30;;
64875;SDS011;51369;49.862;9.908;2022-09-21T03:22:19;2.50;;;0.98;;
64875;SDS011;51369;49.862;9.908;2022-09-21T03:24:48;3.90;;;1.20;;
64875;SDS011;51369;49.862;9.908;2022-09-21T03:27:15;4.40;;;1.50;;
64875;SDS011;51369;49.862;9.908;2022-09-21T03:29:42;3.28;;;1.10;;
64875;SDS011;51369;49.862;9.908;2022-09-21T03:32:08;6.40;;;3.35;;
64875;SDS011;51369;49.862;9.908;2022-09-21T03:34:35;3.17;;;1.33;;
64875;SDS011;51369;49.862;9.908;2022-09-21T03:37:01;1.83;;;1.35;;
64875;SDS011;51369;49.862;9.908;2022-09-21T03:39:29;1.30;;;1.10;;
64875;SDS011;51369;49.862;9.908;2022-09-21T03:41:54;1.83;;;1.40;;
64875;SDS011;51369;49.862;9.908;2022-09-21T03:44:21;4.57;;;1.08;;
64875;SDS011;51369;49.862;9.908;2022-09-21T03:46:47;3.08;;;1.23;;
64875;SDS011;51369;49.862;9.908;2022-09-21T03:49:14;2.67;;;1.10;;
64875;SDS011;51369;49.862;9.908;2022-09-21T03:51:39;2.00;;;1.38;;
64875;SDS011;51369;49.862;9.908;2022-09-21T03:54:05;3.72;;;1.20;;
64875;SDS011;51369;49.862;9.908;2022-09-21T03:56:30;1.65;;;1.17;;
64875;SDS011;51369;49.862;9.908;2022-09-21T03:58:55;1.73;;;1.27;;
64875;SDS011;51369;49.862;9.908;2022-09-21T04:01:21;2.10;;;1.48;;
64875;SDS011;51369;49.862;9.908;2022-09-21T04:03:47;2.75;;;1.67;;
64875;SDS011;51369;49.862;9.908;2022-09-21T04:06:12;3.80;;;1.58;;
64875;SDS011;51369;49.862;9.908;2022-09-21T04:08:38;2.20;;;2.00;;
64875;SDS011;51369;49.862;9.908;2022-09-21T04:11:10;2.42;;;1.98;;
64875;SDS011;51369;49.862;9.908;2022-09-21T04:13:37;4.07;;;2.63;;
64875;SDS011;51369;49.862;9.908;2022-09-21T04:16:03;7.30;;;3.20;;
64875;SDS011;51369;49.862;9.908;2022-09-21T04:18:29;4.70;;;2.35;;
64875;SDS011;51369;49.862;9.908;2022-09-21T04:20:54;2.33;;;1.98;;
64875;SDS011;51369;49.862;9.908;2022-09-21T04:23:20;2.05;;;1.80;;
64875;SDS011;51369;49.862;9.908;2022-09-21T04:25:47;3.00;;;2.05;;
64875;SDS011;51369;49.862;9.908;2022-09-21T04:28:15;3.13;;;2.33;;
64875;SDS011;51369;49.862;9.908;2022-09-21T04:30:41;2.22;;;1.90;;
64875;SDS011;51369;49.862;9.908;2022-09-21T04:33:07;3.92;;;3.10;;
64875;SDS011;51369;49.862;9.908;2022-09-21T04:35:32;4.18;;;2.83;;
64875;SDS011;51369;49.862;9.908;2022-09-21T04:37:58;3.25;;;2.40;;
64875;SDS011;51369;49.862;9.908;2022-09-21T04:40:23;3.70;;;2.40;;
64875;SDS011;51369;49.862;9.908;2022-09-21T04:42:52;2.20;;;2.00;;
64875;SDS011;51369;49.862;9.908;2022-09-21T04:45:19;4.72;;;1.98;;
64875;SDS011;51369;49.862;9.908;2022-09-21T04:47:45;6.03;;;2.25;;
64875;SDS011;51369;49.862;9.908;2022-09-21T04:50:11;10.77;;;2.35;;
64875;SDS011;51369;49.862;9.908;2022-09-21T04:52:39;3.63;;;2.72;;
64875;SDS011;51369;49.862;9.908;2022-09-21T04:55:05;7.20;;;3.60;;
64875;SDS011;51369;49.862;9.908;2022-09-21T04:57:31;5.57;;;2.95;;
64875;SDS011;51369;49.862;9.908;2022-09-21T04:59:57;4.00;;;2.70;;
64875;SDS011;51369;49.862;9.908;2022-09-21T05:02:22;4.60;;;2.70;;
64875;SDS011;51369;49.862;9.908;2022-09-21T05:04:48;6.78;;;3.67;;
64875;SDS011;51369;49.862;9.908;2022-09-21T05:07:14;7.35;;;3.50;;
64875;SDS011;51369;49.862;9.908;2022-09-21T05:09:39;7.47;;;3.33;;
64875;SDS011;51369;49.862;9.908;2022-09-21T05:12:23;6.15;;;3.47;;
64875;SDS011;51369;49.862;9.908;2022-09-21T05:14:49;6.00;;;3.35;;
64875;SDS011;51369;49.862;9.908;2022-09-21T05:17:14;11.02;;;3.83;;
64875;SDS011;51369;49.862;9.908;2022-09-21T05:19:40;7.10;;;3.80;;
64875;SDS011;51369;49.862;9.908;2022-09-21T05:22:05;6.70;;;3.47;;
64875;SDS011;51369;49.862;9.908;2022-09-21T05:24:31;4.78;;;2.97;;
64875;SDS011;51369;49.862;9.908;2022-09-21T05:26:56;3.97;;;2.00;;
64875;SDS011;51369;49.862;9.908;2022-09-21T05:29:21;3.35;;;2.33;;
64875;SDS011;51369;49.862;9.908;2022-09-21T05:31:49;4.03;;;3.10;;
64875;SDS011;51369;49.862;9.908;2022-09-21T05:39:19;4.73;;;3.17;;
64875;SDS011;51369;49.862;9.908;2022-09-21T05:41:45;5.80;;;3.65;;
64875;SDS011;51369;49.862;9.908;2022-09-21T05:44:13;7.45;;;3.13;;
64875;SDS011;51369;49.862;9.908;2022-09-21T05:46:40;5.40;;;3.22;;
64875;SDS011;51369;49.862;9.908;2022-09-21T05:49:25;4.53;;;3.03;;
64875;SDS011;51369;49.862;9.908;2022-09-21T05:58:02;3.47;;;2.45;;
64875;SDS011;51369;49.862;9.908;2022-09-21T06:01:07;4.75;;;3.10;;
64875;SDS011;51369;49.862;9.908;2022-09-21T06:03:43;5.22;;;3.13;;
64875;SDS011;51369;49.862;9.908;2022-09-21T06:06:11;5.35;;;3.42;;
64875;SDS011;51369;49.862;9.908;2022-09-21T06:08:36;2.40;;;2.20;;
64875;SDS011;51369;49.862;9.908;2022-09-21T06:11:02;3.30;;;2.30;;
64875;SDS011;51369;49.862;9.908;2022-09-21T06:13:29;2.67;;;2.08;;
64875;SDS011;51369;49.862;9.908;2022-09-21T06:15:55;5.55;;;2.50;;
64875;SDS011;51369;49.862;9.908;2022-09-21T06:18:21;4.07;;;2.40;;
64875;SDS011;51369;49.862;9.908;2022-09-21T06:20:46;2.90;;;2.17;;
64875;SDS011;51369;49.862;9.908;2022-09-21T06:23:12;2.67;;;2.17;;
64875;SDS011;51369;49.862;9.908;2022-09-21T06:25:39;3.25;;;2.30;;
64875;SDS011;51369;49.862;9.908;2022-09-21T06:28:05;4.97;;;2.42;;
64875;SDS011;51369;49.862;9.908;2022-09-21T06:30:33;3.63;;;2.58;;
64875;SDS011;51369;49.862;9.908;2022-09-21T06:33:02;6.57;;;3.85;;
64875;SDS011;51369;49.862;9.908;2022-09-21T06:35:29;20.63;;;9.43;;
64875;SDS011;51369;49.862;9.908;2022-09-21T06:37:56;9.90;;;5.05;;
64875;SDS011;51369;49.862;9.908;2022-09-21T06:40:25;6.70;;;3.72;;
64875;SDS011;51369;49.862;9.908;2022-09-21T06:42:55;11.43;;;3.30;;
64875;SDS011;51369;49.862;9.908;2022-09-21T06:45:22;8.48;;;2.17;;
64875;SDS011;51369;49.862;9.908;2022-09-21T06:47:47;5.57;;;2.13;;
64875;SDS011;51369;49.862;9.908;2022-09-21T06:50:12;4.55;;;2.47;;
64875;SDS011;51369;49.862;9.908;2022-09-21T06:52:38;2.38;;;2.10;;
64875;SDS011;51369;49.862;9.908;2022-09-21T06:55:05;2.10;;;1.90;;
64875;SDS011;51369;49.862;9.908;2022-09-21T06:57:30;3.47;;;1.98;;
64875;SDS011;51369;49.862;9.908;2022-09-21T06:59:56;4.55;;;1.80;;
64875;SDS011;51369;49.862;9.908;2022-09-21T07:02:22;4.32;;;2.05;;
64875;SDS011;51369;49.862;9.908;2022-09-21T07:04:47;3.67;;;1.85;;
64875;SDS011;51369;49.862;9.908;2022-09-21T07:07:13;3.90;;;1.95;;
64875;SDS011;51369;49.862;9.908;2022-09-21T07:09:38;3.30;;;2.10;;
64875;SDS011;51369;49.862;9.908;2022-09-21T07:12:04;3.63;;;2.13;;
64875;SDS011;51369;49.862;9.908;2022-09-21T07:14:31;3.72;;;2.45;;
64875;SDS011;51369;49.862;9.908;2022-09-21T07:16:56;4.10;;;2.30;;
64875;SDS011;51369;49.862;9.908;2022-09-21T07:19:22;3.78;;;2.13;;
64875;SDS011;51369;49.862;9.908;2022-09-21T07:21:47;4.70;;;2.35;;
64875;SDS011;51369;49.862;9.908;2022-09-21T07:24:12;5.80;;;2.70;;
64875;SDS011;51369;49.862;9.908;2022-09-21T07:26:39;5.65;;;2.50;;
64875;SDS011;51369;49.862;9.908;2022-09-21T07:29:04;4.32;;;2.28;;
64875;SDS011;51369;49.862;9.908;2022-09-21T07:31:30;5.30;;;2.80;;
64875;SDS011;51369;49.862;9.908;2022-09-21T07:33:56;6.38;;;3.58;;
64875;SDS011;51369;49.862;9.908;2022-09-21T07:36:24;8.65;;;3.40;;
64875;SDS011;51369;49.862;9.908;2022-09-21T07:38:50;5.88;;;3.17;;
64875;SDS011;51369;49.862;9.908;2022-09-21T07:41:17;6.13;;;3.50;;
64875;SDS011;51369;49.862;9.908;2022-09-21T07:43:43;9.55;;;3.65;;
64875;SDS011;51369;49.862;9.908;2022-09-21T07:46:12;4.93;;;3.90;;
64875;SDS011;51369;49.862;9.908;2022-09-21T07:48:39;7.35;;;3.88;;
64875;SDS011;51369;49.862;9.908;2022-09-21T07:51:06;4.78;;;3.72;;
64875;SDS011;51369;49.862;9.908;2022-09-21T07:53:34;7.80;;;3.85;;
64875;SDS011;51369;49.862;9.908;2022-09-21T07:56:05;7.15;;;4.25;;
64875;SDS011;51369;49.862;9.908;2022-09-21T07:58:39;16.38;;;4.53;;
64875;SDS011;51369;49.862;9.908;2022-09-21T08:01:24;8.88;;;4.38;;
64875;SDS011;51369;49.862;9.908;2022-09-21T08:03:51;8.73;;;4.38;;
64875;SDS011;51369;49.862;9.908;2022-09-21T08:06:19;7.72;;;5.10;;
64875;SDS011;51369;49.862;9.908;2022-09-21T08:08:45;7.43;;;5.63;;
64875;SDS011;51369;49.862;9.908;2022-09-21T08:11:16;12.32;;;6.60;;
64875;SDS011;51369;49.862;9.908;2022-09-21T08:13:53;10.80;;;5.72;;
64875;SDS011;51369;49.862;9.908;2022-09-21T08:16:20;11.05;;;5.82;;
64875;SDS011;51369;49.862;9.908;2022-09-21T08:18:46;9.68;;;6.30;;
64875;SDS011;51369;49.862;9.908;2022-09-21T08:21:11;15.35;;;7.80;;
64875;SDS011;51369;49.862;9.908;2022-09-21T08:23:40;14.57;;;6.78;;
64875;SDS011;51369;49.862;9.908;2022-09-21T08:26:07;12.35;;;6.93;;
64875;SDS011;51369;49.862;9.908;2022-09-21T08:28:35;11.27;;;7.47;;
64875;SDS011;51369;49.862;9.908;2022-09-21T08:31:01;13.95;;;8.25;;
64875;SDS011;51369;49.862;9.908;2022-09-21T08:33:31;19.67;;;10.07;;
64875;SDS011;51369;49.862;9.908;2022-09-21T08:35:57;18.83;;;10.40;;
64875;SDS011;51369;49.862;9.908;2022-09-21T08:38:24;15.02;;;9.75;;
64875;SDS011;51369;49.862;9.908;2022-09-21T08:40:50;18.17;;;9.40;;
64875;SDS011;51369;49.862;9.908;2022-09-21T08:43:25;12.93;;;8.88;;
64875;SDS011;51369;49.862;9.908;2022-09-21T08:45:58;14.23;;;8.18;;
64875;SDS011;51369;49.862;9.908;2022-09-21T08:48:27;14.55;;;8.68;;
64875;SDS011;51369;49.862;9.908;2022-09-21T08:50:58;12.32;;;8.30;;
64875;SDS011;51369;49.862;9.908;2022-09-21T08:55:59;16.10;;;8.38;;
64875;SDS011;51369;49.862;9.908;2022-09-21T08:58:27;11.57;;;8.80;;
64875;SDS011;51369;49.862;9.908;2022-09-21T09:01:07;13.02;;;8.80;;
64875;SDS011;51369;49.862;9.908;2022-09-21T09:14:31;10.60;;;7.22;;
64875;SDS011;51369;49.862;9.908;2022-09-21T09:19:40;10.73;;;6.68;;
64875;SDS011;51369;49.862;9.908;2022-09-21T09:22:11;9.30;;;7.05;;
64875;SDS011;51369;49.862;9.908;2022-09-21T09:24:48;12.05;;;7.18;;
64875;SDS011;51369;49.862;9.908;2022-09-21T09:27:17;9.75;;;6.93;;
64875;SDS011;51369;49.862;9.908;2022-09-21T09:32:41;8.95;;;6.40;;
64875;SDS011;51369;49.862;9.908;2022-09-21T09:37:56;9.70;;;6.68;;
64875;SDS011;51369;49.862;9.908;2022-09-21T09:40:37;11.13;;;6.95;;
64875;SDS011;51369;49.862;9.908;2022-09-21T09:46:31;10.43;;;6.70;;
64875;SDS011;51369;49.862;9.908;2022-09-21T09:52:13;7.75;;;6.10;;
64875;SDS011;51369;49.862;9.908;2022-09-21T09:54:40;7.43;;;5.97;;
64875;SDS011;51369;49.862;9.908;2022-09-21T09:57:07;12.27;;;6.13;;
64875;SDS011;51369;49.862;9.908;2022-09-21T09:59:48;8.98;;;6.07;;
64875;SDS011;51369;49.862;9.908;2022-09-21T10:04:55;7.60;;;5.90;;
64875;SDS011;51369;49.862;9.908;2022-09-21T10:12:28;9.13;;;4.60;;
64875;SDS011;51369;49.862;9.908;2022-09-21T10:14:55;6.63;;;4.97;;
64875;SDS011;51369;49.862;9.908;2022-09-21T10:17:24;8.35;;;4.60;;
64875;SDS011;51369;49.862;9.908;2022-09-21T10:20:00;8.95;;;4.00;;
64875;SDS011;51369;49.862;9.908;2022-09-21T10:22:27;9.23;;;5.13;;
64875;SDS011;51369;49.862;9.908;2022-09-21T10:24:54;6.22;;;4.25;;
64875;SDS011;51369;49.862;9.908;2022-09-21T10:29:52;7.15;;;3.67;;
64875;SDS011;51369;49.862;9.908;2022-09-21T10:32:23;4.82;;;2.95;;
64875;SDS011;51369;49.862;9.908;2022-09-21T10:37:38;4.00;;;3.15;;
64875;SDS011;51369;49.862;9.908;2022-09-21T10:42:45;7.25;;;2.92;;
64875;SDS011;51369;49.862;9.908;2022-09-21T10:45:14;4.47;;;2.30;;
64875;SDS011;51369;49.862;9.908;2022-09-21T10:47:43;1.80;;;1.70;;
64875;SDS011;51369;49.862;9.908;2022-09-21T10:53:00;2.58;;;1.40;;
64875;SDS011;51369;49.862;9.908;2022-09-21T10:55:37;2.42;;;1.60;;
64875;SDS011;51369;49.862;9.908;2022-09-21T10:58:09;3.72;;;1.88;;
64875;SDS011;51369;49.862;9.908;2022-09-21T11:00:43;2.65;;;1.65;;
64875;SDS011;51369;49.862;9.908;2022-09-21T11:06:20;2.03;;;1.67;;
64875;SDS011;51369;49.862;9.908;2022-09-21T11:25:13;2.63;;;1.50;;
64875;SDS011;51369;49.862;9.908;2022-09-21T11:27:44;2.47;;;1.30;;
64875;SDS011;51369;49.862;9.908;2022-09-21T11:30:16;3.15;;;1.67;;
64875;SDS011;51369;49.862;9.908;2022-09-21T11:38:27;1.50;;;0.98;;
64875;SDS011;51369;49.862;9.908;2022-09-21T11:41:17;1.27;;;1.10;;
64875;SDS011;51369;49.862;9.908;2022-09-21T11:47:43;1.15;;;1.00;;
64875;SDS011;51369;49.862;9.908;2022-09-21T11:56:25;2.22;;;1.23;;
64875;SDS011;51369;49.862;9.908;2022-09-21T11:58:59;2.03;;;1.00;;
64875;SDS011;51369;49.862;9.908;2022-09-21T12:13:02;3.17;;;1.20;;
64875;SDS011;51369;49.862;9.908;2022-09-21T12:18:53;1.42;;;0.95;;
64875;SDS011;51369;49.862;9.908;2022-09-21T12:21:33;4.50;;;1.23;;
64875;SDS011;51369;49.862;9.908;2022-09-21T12:29:44;0.95;;;0.82;;
64875;SDS011;51369;49.862;9.908;2022-09-21T12:32:27;1.10;;;0.73;;
64875;SDS011;51369;49.862;9.908;2022-09-21T12:35:05;3.53;;;0.80;;
64875;SDS011;51369;49.862;9.908;2022-09-21T12:40:30;1.35;;;0.95;;
64875;SDS011;51369;49.862;9.908;2022-09-21T12:43:01;1.23;;;0.80;;
64875;SDS011;51369;49.862;9.908;2022-09-21T12:45:34;1.38;;;0.82;;
64875;SDS011;51369;49.862;9.908;2022-09-21T12:50:41;1.50;;;1.30;;
64875;SDS011;51369;49.862;9.908;2022-09-21T12:53:17;2.00;;;0.95;;
64875;SDS011;51369;49.862;9.908;2022-09-21T12:55:48;2.92;;;1.08;;
64875;SDS011;51369;49.862;9.908;2022-09-21T13:01:30;1.70;;;0.90;;
64875;SDS011;51369;49.862;9.908;2022-09-21T13:09:31;0.90;;;0.90;;
64875;SDS011;51369;49.862;9.908;2022-09-21T13:11:59;1.10;;;1.00;;
64875;SDS011;51369;49.862;9.908;2022-09-21T13:14:32;1.58;;;0.90;;
64875;SDS011;51369;49.862;9.908;2022-09-21T13:17:02;0.93;;;0.90;;
64875;SDS011;51369;49.862;9.908;2022-09-21T13:19:30;1.00;;;1.00;;
64875;SDS011;51369;49.862;9.908;2022-09-21T13:24:45;1.50;;;1.00;;
64875;SDS011;51369;49.862;9.908;2022-09-21T13:30:47;2.85;;;1.20;;
64875;SDS011;51369;49.862;9.908;2022-09-21T13:35:52;2.55;;;1.10;;
64875;SDS011;51369;49.862;9.908;2022-09-21T13:49:12;1.08;;;0.80;;
64875;SDS011;51369;49.862;9.908;2022-09-21T13:54:15;3.15;;;1.20;;
64875;SDS011;51369;49.862;9.908;2022-09-21T13:56:42;1.27;;;0.90;;
64875;SDS011;51369;49.862;9.908;2022-09-21T13:59:16;1.23;;;1.02;;
64875;SDS011;51369;49.862;9.908;2022-09-21T14:01:48;1.10;;;1.05;;
64875;SDS011;51369;49.862;9.908;2022-09-21T14:04:26;1.42;;;1.00;;
64875;SDS011;51369;49.862;9.908;2022-09-21T14:06:55;1.98;;;1.25;;
64875;SDS011;51369;49.862;9.908;2022-09-21T14:09:23;1.75;;;1.00;;
64875;SDS011;51369;49.862;9.908;2022-09-21T14:11:54;2.47;;;1.10;;
64875;SDS011;51369;49.862;9.908;2022-09-21T14:16:51;1.60;;;1.00;;
64875;SDS011;51369;49.862;9.908;2022-09-21T14:24:43;1.10;;;1.10;;
64875;SDS011;51369;49.862;9.908;2022-09-21T14:27:44;3.58;;;1.38;;
64875;SDS011;51369;49.862;9.908;2022-09-21T14:30:20;1.10;;;0.98;;
64875;SDS011;51369;49.862;9.908;2022-09-21T14:33:04;2.25;;;1.20;;
64875;SDS011;51369;49.862;9.908;2022-09-21T14:35:36;1.50;;;1.30;;
64875;SDS011;51369;49.862;9.908;2022-09-21T14:41:02;1.77;;;1.20;;
64875;SDS011;51369;49.862;9.908;2022-09-21T14:43:35;2.85;;;1.10;;
64875;SDS011;51369;49.862;9.908;2022-09-21T14:54:47;1.90;;;1.20;;
64875;SDS011;51369;49.862;9.908;2022-09-21T15:00:15;1.13;;;1.00;;
64875;SDS011;51369;49.862;9.908;2022-09-21T15:03:04;7.05;;;1.90;;
64875;SDS011;51369;49.862;9.908;2022-09-21T15:05:34;1.77;;;1.23;;
64875;SDS011;51369;49.862;9.908;2022-09-21T15:08:13;1.30;;;1.15;;
64875;SDS011;51369;49.862;9.908;2022-09-21T15:11:22;1.48;;;0.93;;
64875;SDS011;51369;49.862;9.908;2022-09-21T15:16:49;2.33;;;1.23;;
64875;SDS011;51369;49.862;9.908;2022-09-21T15:21:48;1.92;;;1.20;;
64875;SDS011;51369;49.862;9.908;2022-09-21T15:24:32;3.53;;;1.60;;
64875;SDS011;51369;49.862;9.908;2022-09-21T15:29:47;1.77;;;1.20;;
64875;SDS011;51369;49.862;9.908;2022-09-21T15:32:23;1.27;;;1.17;;
64875;SDS011;51369;49.862;9.908;2022-09-21T15:34:59;1.35;;;1.25;;
64875;SDS011;51369;49.862;9.908;2022-09-21T15:37:27;1.45;;;1.33;;
64875;SDS011;51369;49.862;9.908;2022-09-21T15:40:00;2.10;;;1.27;;
64875;SDS011;51369;49.862;9.908;2022-09-21T15:42:26;1.10;;;1.00;;
64875;SDS011;51369;49.862;9.908;2022-09-21T15:47:42;1.20;;;1.17;;
64875;SDS011;51369;49.862;9.908;2022-09-21T15:50:15;1.83;;;1.20;;
64875;SDS011;51369;49.862;9.908;2022-09-21T15:52:45;3.03;;;1.10;;
64875;SDS011;51369;49.862;9.908;2022-09-21T15:55:16;2.13;;;1.10;;
64875;SDS011;51369;49.862;9.908;2022-09-21T15:57:46;1.40;;;0.95;;
64875;SDS011;51369;49.862;9.908;2022-09-21T16:00:21;1.10;;;1.00;;
64875;SDS011;51369;49.862;9.908;2022-09-21T16:02:50;2.30;;;1.13;;
64875;SDS011;51369;49.862;9.908;2022-09-21T16:05:21;1.40;;;1.00;;
64875;SDS011;51369;49.862;9.908;2022-09-21T16:07:49;2.13;;;1.27;;
64875;SDS011;51369;49.862;9.908;2022-09-21T16:13:08;3.28;;;1.27;;
64875;SDS011;51369;49.862;9.908;2022-09-21T16:18:40;2.15;;;1.25;;
64875;SDS011;51369;49.862;9.908;2022-09-21T16:21:28;5.45;;;1.38;;
64875;SDS011;51369;49.862;9.908;2022-09-21T16:24:09;3.28;;;1.08;;
64875;SDS011;51369;49.862;9.908;2022-09-21T16:26:48;3.13;;;1.30;;
64875;SDS011;51369;49.862;9.908;2022-09-21T16:29:22;2.10;;;1.08;;
64875;SDS011;51369;49.862;9.908;2022-09-21T16:31:50;1.98;;;1.42;;
64875;SDS011;51369;49.862;9.908;2022-09-21T16:34:35;1.67;;;1.15;;
64875;SDS011;51369;49.862;9.908;2022-09-21T16:37:01;1.30;;;1.00;;
64875;SDS011;51369;49.862;9.908;2022-09-21T16:39:52;1.27;;;1.17;;
64875;SDS011;51369;49.862;9.908;2022-09-21T16:42:23;3.00;;;1.10;;
64875;SDS011;51369;49.862;9.908;2022-09-21T16:47:21;1.10;;;1.00;;
64875;SDS011;51369;49.862;9.908;2022-09-21T16:50:00;1.20;;;1.10;;
64875;SDS011;51369;49.862;9.908;2022-09-21T16:52:27;1.35;;;1.00;;
64875;SDS011;51369;49.862;9.908;2022-09-21T16:54:54;2.33;;;0.90;;
64875;SDS011;51369;49.862;9.908;2022-09-21T16:57:21;1.88;;;1.08;;
64875;SDS011;51369;49.862;9.908;2022-09-21T16:59:48;3.15;;;1.08;;
64875;SDS011;51369;49.862;9.908;2022-09-21T17:02:14;1.20;;;1.10;;
64875;SDS011;51369;49.862;9.908;2022-09-21T17:04:40;1.15;;;1.13;;
64875;SDS011;51369;49.862;9.908;2022-09-21T17:07:06;1.00;;;1.00;;
64875;SDS011;51369;49.862;9.908;2022-09-21T17:09:36;0.80;;;0.80;;
64875;SDS011;51369;49.862;9.908;2022-09-21T17:12:05;2.78;;;1.10;;
64875;SDS011;51369;49.862;9.908;2022-09-21T17:14:32;2.40;;;1.20;;
64875;SDS011;51369;49.862;9.908;2022-09-21T17:17:04;4.32;;;1.25;;
64875;SDS011;51369;49.862;9.908;2022-09-21T17:19:35;2.33;;;1.35;;
64875;SDS011;51369;49.862;9.908;2022-09-21T17:22:01;2.65;;;1.60;;
64875;SDS011;51369;49.862;9.908;2022-09-21T17:24:28;3.95;;;1.50;;
64875;SDS011;51369;49.862;9.908;2022-09-21T17:26:53;3.85;;;2.70;;
64875;SDS011;51369;49.862;9.908;2022-09-21T17:29:20;4.40;;;3.00;;
64875;SDS011;51369;49.862;9.908;2022-09-21T17:31:48;5.57;;;4.25;;
64875;SDS011;51369;49.862;9.908;2022-09-21T17:34:16;7.50;;;5.25;;
64875;SDS011;51369;49.862;9.908;2022-09-21T17:36:41;8.68;;;5.50;;
64875;SDS011;51369;49.862;9.908;2022-09-21T17:39:07;15.68;;;9.35;;
64875;SDS011;51369;49.862;9.908;2022-09-21T17:41:38;7.90;;;4.95;;
64875;SDS011;51369;49.862;9.908;2022-09-21T17:44:14;8.43;;;2.92;;
64875;SDS011;51369;49.862;9.908;2022-09-21T17:46:45;3.65;;;1.90;;
64875;SDS011;51369;49.862;9.908;2022-09-21T17:49:11;2.33;;;1.90;;
64875;SDS011;51369;49.862;9.908;2022-09-21T17:51:37;2.50;;;1.88;;
64875;SDS011;51369;49.862;9.908;2022-09-21T17:54:21;2.22;;;1.60;;
64875;SDS011;51369;49.862;9.908;2022-09-21T17:56:53;6.00;;;4.30;;
64875;SDS011;51369;49.862;9.908;2022-09-21T17:59:31;5.68;;;4.53;;
64875;SDS011;51369;49.862;9.908;2022-09-21T18:01:59;7.93;;;6.25;;
64875;SDS011;51369;49.862;9.908;2022-09-21T18:04:25;9.52;;;7.65;;
64875;SDS011;51369;49.862;9.908;2022-09-21T18:06:53;12.25;;;8.63;;
64875;SDS011;51369;49.862;9.908;2022-09-21T18:09:19;7.35;;;5.65;;
64875;SDS011;51369;49.862;9.908;2022-09-21T18:12:00;6.40;;;3.88;;
64875;SDS011;51369;49.862;9.908;2022-09-21T18:14:48;5.25;;;4.30;;
64875;SDS011;51369;49.862;9.908;2022-09-21T18:22:48;5.25;;;2.83;;
64875;SDS011;51369;49.862;9.908;2022-09-21T18:25:39;4.88;;;3.40;;
64875;SDS011;51369;49.862;9.908;2022-09-21T18:28:16;4.80;;;3.55;;
64875;SDS011;51369;49.862;9.908;2022-09-21T18:30:54;5.22;;;3.63;;
64875;SDS011;51369;49.862;9.908;2022-09-21T18:33:48;4.82;;;3.47;;
64875;SDS011;51369;49.862;9.908;2022-09-21T18:36:19;5.88;;;3.53;;
64875;SDS011;51369;49.862;9.908;2022-09-21T18:39:03;7.75;;;4.80;;
64875;SDS011;51369;49.862;9.908;2022-09-21T18:44:42;6.43;;;3.47;;
64875;SDS011;51369;49.862;9.908;2022-09-21T18:47:21;5.47;;;3.53;;
64875;SDS011;51369;49.862;9.908;2022-09-21T18:55:25;7.70;;;3.97;;
64875;SDS011;51369;49.862;9.908;2022-09-21T18:57:54;9.48;;;6.35;;